sensor_id;sensor_type;location;lat;lon;timestamp;pressure;altitude;pressure_sealevel;temperature;humidity
59971;BME280;45825;45.434;9.116;2023-03-21T00:00:31;100673.63;;;12.47;76.90
59971;BME280;45825;45.434;9.116;2023-03-21T00:02:56;100674.88;;;12.55;76.33
59971;BME280;45825;45.434;9.116;2023-03-21T00:05:22;100667.81;;;12.40;77.02
59971;BME280;45825;45.434;9.116;2023-03-21T00:07:47;100674.19;;;12.52;76.67
59971;BME280;45825;45.434;9.116;2023-03-21T00:10:13;100663.59;;;12.37;77.06
59971;BME280;45825;45.434;9.116;2023-03-21T00:12:38;100669.88;;;12.51;76.42
59971;BME280;45825;45.434;9.116;2023-03-21T00:15:12;100666.47;;;12.49;76.46
59971;BME280;45825;45.434;9.116;2023-03-21T00:17:38;100654.09;;;12.49;76.73
59971;BME280;45825;45.434;9.116;2023-03-21T00:20:05;100651.59;;;12.32;77.26
59971;BME280;45825;45.434;9.116;2023-03-21T00:22:33;100648.78;;;12.19;77.65
59971;BME280;45825;45.434;9.116;2023-03-21T00:24:59;100648.88;;;12.17;78.02
59971;BME280;45825;45.434;9.116;2023-03-21T00:27:25;100657.63;;;12.01;78.48
59971;BME280;45825;45.434;9.116;2023-03-21T00:29:51;100647.06;;;12.01;79.00
59971;BME280;45825;45.434;9.116;2023-03-21T00:32:18;100644.44;;;12.01;79.14
59971;BME280;45825;45.434;9.116;2023-03-21T00:34:44;100645.22;;;12.04;79.12
59971;BME280;45825;45.434;9.116;2023-03-21T00:37:10;100642.66;;;12.02;78.91
59971;BME280;45825;45.434;9.116;2023-03-21T00:39:38;100639.94;;;12.04;79.45
59971;BME280;45825;45.434;9.116;2023-03-21T00:42:04;100641.88;;;12.16;78.34
59971;BME280;45825;45.434;9.116;2023-03-21T00:44:29;100630.50;;;12.15;77.98
59971;BME280;45825;45.434;9.116;2023-03-21T00:47:03;100637.38;;;12.18;77.80
59971;BME280;45825;45.434;9.116;2023-03-21T00:49:29;100628.56;;;12.03;78.33
59971;BME280;45825;45.434;9.116;2023-03-21T00:52:03;100629.47;;;12.02;78.29
59971;BME280;45825;45.434;9.116;2023-03-21T00:54:31;100628.34;;;11.90;78.86
59971;BME280;45825;45.434;9.116;2023-03-21T00:56:56;100610.94;;;12.04;78.04
59971;BME280;45825;45.434;9.116;2023-03-21T00:59:22;100617.91;;;12.05;77.90
59971;BME280;45825;45.434;9.116;2023-03-21T01:01:47;100617.56;;;12.11;77.65
59971;BME280;45825;45.434;9.116;2023-03-21T01:04:13;100611.00;;;12.02;77.84
59971;BME280;45825;45.434;9.116;2023-03-21T01:06:42;100605.66;;;12.04;78.24
59971;BME280;45825;45.434;9.116;2023-03-21T01:09:13;100603.09;;;12.02;78.20
59971;BME280;45825;45.434;9.116;2023-03-21T01:11:41;100602.47;;;11.97;78.29
59971;BME280;45825;45.434;9.116;2023-03-21T01:14:06;100602.66;;;11.94;78.29
59971;BME280;45825;45.434;9.116;2023-03-21T01:16:32;100599.66;;;12.00;78.01
59971;BME280;45825;45.434;9.116;2023-03-21T01:18:57;100593.63;;;11.98;78.19
59971;BME280;45825;45.434;9.116;2023-03-21T01:21:23;100594.66;;;11.95;78.02
59971;BME280;45825;45.434;9.116;2023-03-21T01:23:49;100591.50;;;11.88;78.71
59971;BME280;45825;45.434;9.116;2023-03-21T01:26:15;100591.63;;;11.71;79.80
59971;BME280;45825;45.434;9.116;2023-03-21T01:28:41;100590.25;;;11.80;79.06
59971;BME280;45825;45.434;9.116;2023-03-21T01:31:08;100588.03;;;11.88;78.32
59971;BME280;45825;45.434;9.116;2023-03-21T01:33:35;100591.44;;;11.90;78.51
59971;BME280;45825;45.434;9.116;2023-03-21T01:36:01;100593.38;;;11.86;78.65
59971;BME280;45825;45.434;9.116;2023-03-21T01:38:26;100585.03;;;11.78;79.23
59971;BME280;45825;45.434;9.116;2023-03-21T01:40:52;100577.75;;;11.83;78.80
59971;BME280;45825;45.434;9.116;2023-03-21T01:48:56;100563.88;;;11.48;79.97
59971;BME280;45825;45.434;9.116;2023-03-21T01:51:22;100578.91;;;11.45;80.50
59971;BME280;45825;45.434;9.116;2023-03-21T01:53:49;100573.91;;;11.41;80.50
59971;BME280;45825;45.434;9.116;2023-03-21T01:56:22;100570.41;;;11.56;79.75
59971;BME280;45825;45.434;9.116;2023-03-21T01:58:50;100562.75;;;11.52;80.08
59971;BME280;45825;45.434;9.116;2023-03-21T02:01:17;100559.19;;;11.53;80.06
59971;BME280;45825;45.434;9.116;2023-03-21T02:03:47;100556.47;;;11.38;81.13
59971;BME280;45825;45.434;9.116;2023-03-21T02:06:43;100554.75;;;11.37;81.20
59971;BME280;45825;45.434;9.116;2023-03-21T02:09:11;100561.41;;;11.44;80.95
59971;BME280;45825;45.434;9.116;2023-03-21T02:11:37;100552.81;;;11.41;80.92
59971;BME280;45825;45.434;9.116;2023-03-21T02:14:03;100557.31;;;11.39;80.77
59971;BME280;45825;45.434;9.116;2023-03-21T02:17:00;100555.28;;;11.44;80.76
59971;BME280;45825;45.434;9.116;2023-03-21T02:28:04;100554.34;;;11.45;80.45
59971;BME280;45825;45.434;9.116;2023-03-21T02:30:43;100550.19;;;11.41;80.33
59971;BME280;45825;45.434;9.116;2023-03-21T02:39:13;100535.81;;;11.46;79.79
59971;BME280;45825;45.434;9.116;2023-03-21T02:41:48;100533.63;;;11.39;80.18
59971;BME280;45825;45.434;9.116;2023-03-21T02:44:22;100533.25;;;11.29;80.85
59971;BME280;45825;45.434;9.116;2023-03-21T02:46:52;100542.00;;;11.29;80.77
59971;BME280;45825;45.434;9.116;2023-03-21T02:49:30;100538.34;;;11.32;80.62
59971;BME280;45825;45.434;9.116;2023-03-21T02:51:58;100537.38;;;11.01;81.68
59971;BME280;45825;45.434;9.116;2023-03-21T02:54:25;100526.69;;;11.20;80.92
59971;BME280;45825;45.434;9.116;2023-03-21T02:56:54;100525.75;;;11.21;80.53
59971;BME280;45825;45.434;9.116;2023-03-21T02:59:22;100526.97;;;10.98;82.41
59971;BME280;45825;45.434;9.116;2023-03-21T03:01:53;100524.97;;;11.03;82.25
59971;BME280;45825;45.434;9.116;2023-03-21T03:04:22;100528.97;;;11.10;81.72
59971;BME280;45825;45.434;9.116;2023-03-21T03:12:03;100512.84;;;11.16;80.75
59971;BME280;45825;45.434;9.116;2023-03-21T03:17:25;100515.53;;;11.15;81.02
59971;BME280;45825;45.434;9.116;2023-03-21T03:22:53;100514.59;;;11.16;80.91
59971;BME280;45825;45.434;9.116;2023-03-21T03:25:25;100517.88;;;11.21;80.36
59971;BME280;45825;45.434;9.116;2023-03-21T03:27:53;100512.25;;;11.11;80.63
59971;BME280;45825;45.434;9.116;2023-03-21T03:30:19;100518.97;;;11.17;80.28
59971;BME280;45825;45.434;9.116;2023-03-21T03:32:49;100510.03;;;11.20;79.99
59971;BME280;45825;45.434;9.116;2023-03-21T03:35:19;100513.00;;;11.13;80.62
59971;BME280;45825;45.434;9.116;2023-03-21T03:37:49;100506.72;;;11.16;80.59
59971;BME280;45825;45.434;9.116;2023-03-21T03:40:39;100500.59;;;11.15;80.26
59971;BME280;45825;45.434;9.116;2023-03-21T03:43:17;100506.28;;;11.08;80.67
59971;BME280;45825;45.434;9.116;2023-03-21T03:45:50;100510.88;;;11.04;80.63
59971;BME280;45825;45.434;9.116;2023-03-21T03:48:25;100509.19;;;11.03;80.80
59971;BME280;45825;45.434;9.116;2023-03-21T03:51:06;100502.78;;;11.07;80.50
59971;BME280;45825;45.434;9.116;2023-03-21T03:53:36;100504.22;;;10.97;80.85
59971;BME280;45825;45.434;9.116;2023-03-21T03:56:06;100505.50;;;10.89;81.37
59971;BME280;45825;45.434;9.116;2023-03-21T03:58:34;100508.16;;;10.72;82.66
59971;BME280;45825;45.434;9.116;2023-03-21T04:01:00;100511.44;;;10.59;83.80
59971;BME280;45825;45.434;9.116;2023-03-21T04:03:25;100509.78;;;10.74;82.59
59971;BME280;45825;45.434;9.116;2023-03-21T04:05:51;100512.03;;;10.65;83.23
59971;BME280;45825;45.434;9.116;2023-03-21T04:08:16;100507.06;;;10.76;82.69
59971;BME280;45825;45.434;9.116;2023-03-21T04:10:42;100508.84;;;10.75;82.64
59971;BME280;45825;45.434;9.116;2023-03-21T04:13:09;100507.81;;;10.78;82.85
59971;BME280;45825;45.434;9.116;2023-03-21T04:15:35;100510.03;;;10.70;82.87
59971;BME280;45825;45.434;9.116;2023-03-21T04:18:01;100517.06;;;10.69;83.20
59971;BME280;45825;45.434;9.116;2023-03-21T04:20:26;100517.88;;;10.54;84.10
59971;BME280;45825;45.434;9.116;2023-03-21T04:22:51;100518.91;;;10.67;83.69
59971;BME280;45825;45.434;9.116;2023-03-21T04:25:18;100521.84;;;10.61;84.25
59971;BME280;45825;45.434;9.116;2023-03-21T04:27:44;100519.56;;;10.55;84.52
59971;BME280;45825;45.434;9.116;2023-03-21T04:30:11;100512.44;;;10.57;84.15
59971;BME280;45825;45.434;9.116;2023-03-21T04:32:37;100516.28;;;10.14;87.50
59971;BME280;45825;45.434;9.116;2023-03-21T04:35:05;100517.22;;;10.31;86.70
59971;BME280;45825;45.434;9.116;2023-03-21T04:37:31;100527.34;;;10.21;87.32
59971;BME280;45825;45.434;9.116;2023-03-21T04:39:58;100523.31;;;10.31;87.33
59971;BME280;45825;45.434;9.116;2023-03-21T04:42:23;100523.66;;;10.43;86.46
59971;BME280;45825;45.434;9.116;2023-03-21T04:44:48;100522.72;;;10.26;86.40
59971;BME280;45825;45.434;9.116;2023-03-21T04:47:16;100521.44;;;10.33;86.45
59971;BME280;45825;45.434;9.116;2023-03-21T04:49:44;100517.38;;;10.10;88.02
59971;BME280;45825;45.434;9.116;2023-03-21T04:52:12;100522.84;;;10.23;88.38
59971;BME280;45825;45.434;9.116;2023-03-21T04:54:37;100530.16;;;10.53;85.98
59971;BME280;45825;45.434;9.116;2023-03-21T04:57:03;100525.28;;;10.45;85.61
59971;BME280;45825;45.434;9.116;2023-03-21T04:59:29;100523.72;;;10.59;85.04
59971;BME280;45825;45.434;9.116;2023-03-21T05:01:55;100524.19;;;10.32;87.03
59971;BME280;45825;45.434;9.116;2023-03-21T05:04:23;100521.31;;;10.37;86.64
59971;BME280;45825;45.434;9.116;2023-03-21T05:06:48;100523.66;;;10.43;86.88
59971;BME280;45825;45.434;9.116;2023-03-21T05:09:14;100519.16;;;10.45;86.41
59971;BME280;45825;45.434;9.116;2023-03-21T05:11:39;100523.81;;;10.57;85.32
59971;BME280;45825;45.434;9.116;2023-03-21T05:14:07;100522.41;;;10.15;87.74
59971;BME280;45825;45.434;9.116;2023-03-21T05:16:33;100524.69;;;10.21;87.35
59971;BME280;45825;45.434;9.116;2023-03-21T05:18:59;100528.28;;;10.38;86.58
59971;BME280;45825;45.434;9.116;2023-03-21T05:21:30;100529.97;;;10.03;88.69
59971;BME280;45825;45.434;9.116;2023-03-21T05:23:58;100529.16;;;10.01;88.90
59971;BME280;45825;45.434;9.116;2023-03-21T05:26:28;100524.28;;;9.93;90.44
59971;BME280;45825;45.434;9.116;2023-03-21T05:28:54;100529.75;;;10.08;88.89
59971;BME280;45825;45.434;9.116;2023-03-21T05:31:20;100525.91;;;9.96;89.14
59971;BME280;45825;45.434;9.116;2023-03-21T05:33:46;100532.00;;;9.79;91.19
59971;BME280;45825;45.434;9.116;2023-03-21T05:36:13;100533.69;;;9.80;91.40
59971;BME280;45825;45.434;9.116;2023-03-21T05:38:38;100532.03;;;9.60;93.44
59971;BME280;45825;45.434;9.116;2023-03-21T05:41:07;100536.03;;;9.67;92.88
59971;BME280;45825;45.434;9.116;2023-03-21T05:43:32;100539.19;;;9.56;95.06
59971;BME280;45825;45.434;9.116;2023-03-21T05:45:57;100538.41;;;9.73;93.64
59971;BME280;45825;45.434;9.116;2023-03-21T05:48:23;100540.69;;;9.62;94.74
59971;BME280;45825;45.434;9.116;2023-03-21T05:50:48;100537.06;;;9.64;94.99
59971;BME280;45825;45.434;9.116;2023-03-21T05:53:13;100539.91;;;9.60;95.22
59971;BME280;45825;45.434;9.116;2023-03-21T05:55:39;100538.47;;;9.72;95.50
59971;BME280;45825;45.434;9.116;2023-03-21T05:58:04;100544.31;;;9.40;98.01
59971;BME280;45825;45.434;9.116;2023-03-21T06:00:30;100542.09;;;9.31;100.00
59971;BME280;45825;45.434;9.116;2023-03-21T06:02:55;100533.44;;;9.48;100.00
59971;BME280;45825;45.434;9.116;2023-03-21T06:05:20;100540.09;;;9.17;100.00
59971;BME280;45825;45.434;9.116;2023-03-21T06:07:46;100531.16;;;9.21;100.00
59971;BME280;45825;45.434;9.116;2023-03-21T06:10:11;100532.38;;;9.14;100.00
59971;BME280;45825;45.434;9.116;2023-03-21T06:12:37;100530.56;;;8.95;100.00
59971;BME280;45825;45.434;9.116;2023-03-21T06:15:04;100537.94;;;9.27;100.00
59971;BME280;45825;45.434;9.116;2023-03-21T06:17:31;100540.09;;;9.36;100.00
59971;BME280;45825;45.434;9.116;2023-03-21T06:19:56;100529.69;;;9.34;100.00
59971;BME280;45825;45.434;9.116;2023-03-21T06:22:22;100539.53;;;9.29;100.00
59971;BME280;45825;45.434;9.116;2023-03-21T06:24:47;100540.66;;;9.43;100.00
59971;BME280;45825;45.434;9.116;2023-03-21T06:27:13;100536.50;;;9.19;100.00
59971;BME280;45825;45.434;9.116;2023-03-21T06:29:38;100534.63;;;9.41;100.00
59971;BME280;45825;45.434;9.116;2023-03-21T06:32:04;100537.13;;;9.25;100.00
59971;BME280;45825;45.434;9.116;2023-03-21T06:34:31;100550.59;;;9.17;100.00
59971;BME280;45825;45.434;9.116;2023-03-21T06:36:56;100532.78;;;9.23;100.00
59971;BME280;45825;45.434;9.116;2023-03-21T06:39:22;100532.22;;;9.36;100.00
59971;BME280;45825;45.434;9.116;2023-03-21T06:41:48;100528.13;;;9.49;100.00
59971;BME280;45825;45.434;9.116;2023-03-21T06:44:13;100531.88;;;9.63;100.00
59971;BME280;45825;45.434;9.116;2023-03-21T06:46:38;100539.03;;;9.59;100.00
59971;BME280;45825;45.434;9.116;2023-03-21T06:49:04;100537.75;;;9.68;100.00
59971;BME280;45825;45.434;9.116;2023-03-21T06:51:29;100532.25;;;9.55;100.00
59971;BME280;45825;45.434;9.116;2023-03-21T06:53:55;100537.06;;;9.64;100.00
59971;BME280;45825;45.434;9.116;2023-03-21T06:56:21;100540.66;;;9.81;100.00
59971;BME280;45825;45.434;9.116;2023-03-21T06:58:47;100540.09;;;9.74;100.00
59971;BME280;45825;45.434;9.116;2023-03-21T07:01:14;100545.53;;;9.89;100.00
59971;BME280;45825;45.434;9.116;2023-03-21T07:03:39;100545.75;;;10.03;100.00
59971;BME280;45825;45.434;9.116;2023-03-21T07:06:06;100552.22;;;9.96;100.00
59971;BME280;45825;45.434;9.116;2023-03-21T07:08:34;100547.31;;;9.88;100.00
59971;BME280;45825;45.434;9.116;2023-03-21T07:10:59;100552.69;;;10.04;100.00
59971;BME280;45825;45.434;9.116;2023-03-21T07:13:24;100550.94;;;10.23;100.00
59971;BME280;45825;45.434;9.116;2023-03-21T07:15:51;100555.00;;;10.11;100.00
59971;BME280;45825;45.434;9.116;2023-03-21T07:18:16;100554.78;;;10.15;100.00
59971;BME280;45825;45.434;9.116;2023-03-21T07:20:46;100559.97;;;10.17;100.00
59971;BME280;45825;45.434;9.116;2023-03-21T07:23:19;100554.78;;;9.98;100.00
59971;BME280;45825;45.434;9.116;2023-03-21T07:25:46;100553.31;;;10.10;100.00
59971;BME280;45825;45.434;9.116;2023-03-21T07:28:12;100556.13;;;10.24;100.00
59971;BME280;45825;45.434;9.116;2023-03-21T07:30:38;100556.13;;;10.24;100.00
59971;BME280;45825;45.434;9.116;2023-03-21T07:33:04;100552.56;;;10.25;100.00
59971;BME280;45825;45.434;9.116;2023-03-21T07:35:30;100547.69;;;10.35;100.00
59971;BME280;45825;45.434;9.116;2023-03-21T07:37:55;100549.50;;;10.52;100.00
59971;BME280;45825;45.434;9.116;2023-03-21T07:40:20;100553.38;;;10.62;100.00
59971;BME280;45825;45.434;9.116;2023-03-21T07:42:47;100544.31;;;10.68;100.00
59971;BME280;45825;45.434;9.116;2023-03-21T07:45:13;100547.41;;;10.76;100.00
59971;BME280;45825;45.434;9.116;2023-03-21T07:47:42;100556.00;;;10.80;100.00
59971;BME280;45825;45.434;9.116;2023-03-21T07:50:08;100561.97;;;10.66;100.00
59971;BME280;45825;45.434;9.116;2023-03-21T07:52:33;100555.94;;;10.64;100.00
59971;BME280;45825;45.434;9.116;2023-03-21T07:54:58;100553.38;;;10.62;100.00
59971;BME280;45825;45.434;9.116;2023-03-21T07:57:24;100553.72;;;10.90;100.00
59971;BME280;45825;45.434;9.116;2023-03-21T07:59:50;100554.00;;;11.01;100.00
59971;BME280;45825;45.434;9.116;2023-03-21T08:02:16;100554.22;;;11.14;99.72
59971;BME280;45825;45.434;9.116;2023-03-21T08:04:42;100559.59;;;11.29;98.34
59971;BME280;45825;45.434;9.116;2023-03-21T08:07:08;100560.28;;;11.32;97.54
59971;BME280;45825;45.434;9.116;2023-03-21T08:09:34;100560.28;;;11.32;98.13
59971;BME280;45825;45.434;9.116;2023-03-21T08:12:00;100562.94;;;11.49;96.22
59971;BME280;45825;45.434;9.116;2023-03-21T08:14:25;100559.44;;;11.48;97.39
59971;BME280;45825;45.434;9.116;2023-03-21T08:16:51;100562.00;;;11.50;96.38
59971;BME280;45825;45.434;9.116;2023-03-21T08:19:17;100557.84;;;11.62;95.45
59971;BME280;45825;45.434;9.116;2023-03-21T08:21:47;100564.97;;;11.59;95.21
59971;BME280;45825;45.434;9.116;2023-03-21T08:24:13;100558.25;;;11.70;94.59
59971;BME280;45825;45.434;9.116;2023-03-21T08:26:39;100562.00;;;11.82;93.53
59971;BME280;45825;45.434;9.116;2023-03-21T08:29:05;100566.09;;;11.71;94.61
59971;BME280;45825;45.434;9.116;2023-03-21T08:31:31;100558.84;;;11.91;93.18
59971;BME280;45825;45.434;9.116;2023-03-21T08:33:56;100562.06;;;11.80;93.78
59971;BME280;45825;45.434;9.116;2023-03-21T08:36:22;100553.13;;;11.99;92.26
59971;BME280;45825;45.434;9.116;2023-03-21T08:38:48;100552.38;;;11.97;92.82
59971;BME280;45825;45.434;9.116;2023-03-21T08:41:18;100554.66;;;12.19;91.21
59971;BME280;45825;45.434;9.116;2023-03-21T08:43:49;100553.97;;;12.32;89.38
59971;BME280;45825;45.434;9.116;2023-03-21T08:46:17;100557.50;;;12.47;89.03
59971;BME280;45825;45.434;9.116;2023-03-21T08:48:43;100548.66;;;12.62;86.92
59971;BME280;45825;45.434;9.116;2023-03-21T08:51:08;100558.69;;;12.71;86.73
59971;BME280;45825;45.434;9.116;2023-03-21T08:53:33;100558.00;;;12.68;87.59
59971;BME280;45825;45.434;9.116;2023-03-21T08:56:00;100548.41;;;12.81;87.99
59971;BME280;45825;45.434;9.116;2023-03-21T08:58:25;100558.22;;;12.94;86.13
59971;BME280;45825;45.434;9.116;2023-03-21T09:00:51;100555.03;;;13.03;85.90
59971;BME280;45825;45.434;9.116;2023-03-21T09:03:17;100557.19;;;13.11;85.24
59971;BME280;45825;45.434;9.116;2023-03-21T09:05:45;100557.84;;;13.29;84.17
59971;BME280;45825;45.434;9.116;2023-03-21T09:08:11;100552.47;;;13.31;82.99
59971;BME280;45825;45.434;9.116;2023-03-21T09:10:41;100552.28;;;13.48;82.85
59971;BME280;45825;45.434;9.116;2023-03-21T09:13:06;100551.81;;;13.56;82.55
59971;BME280;45825;45.434;9.116;2023-03-21T09:15:32;100555.66;;;13.65;81.26
59971;BME280;45825;45.434;9.116;2023-03-21T09:17:59;100553.72;;;13.81;81.90
59971;BME280;45825;45.434;9.116;2023-03-21T09:20:38;100555.56;;;13.94;79.87
59971;BME280;45825;45.434;9.116;2023-03-21T09:23:04;100556.91;;;13.87;78.56
59971;BME280;45825;45.434;9.116;2023-03-21T09:25:30;100567.47;;;14.01;78.72
59971;BME280;45825;45.434;9.116;2023-03-21T09:27:57;100556.28;;;14.23;77.47
59971;BME280;45825;45.434;9.116;2023-03-21T09:30:23;100561.84;;;14.33;75.58
59971;BME280;45825;45.434;9.116;2023-03-21T09:32:48;100558.69;;;14.41;75.15
59971;BME280;45825;45.434;9.116;2023-03-21T09:35:15;100555.75;;;14.59;73.89
59971;BME280;45825;45.434;9.116;2023-03-21T09:37:42;100553.03;;;14.73;73.67
59971;BME280;45825;45.434;9.116;2023-03-21T09:40:45;100552.28;;;14.97;72.42
59971;BME280;45825;45.434;9.116;2023-03-21T09:45:57;100552.41;;;14.96;70.65
59971;BME280;45825;45.434;9.116;2023-03-21T09:48:53;100552.50;;;15.07;70.01
59971;BME280;45825;45.434;9.116;2023-03-21T09:51:22;100548.75;;;15.35;69.21
59971;BME280;45825;45.434;9.116;2023-03-21T09:53:50;100553.03;;;15.49;68.34
59971;BME280;45825;45.434;9.116;2023-03-21T09:56:17;100547.78;;;15.74;66.82
59971;BME280;45825;45.434;9.116;2023-03-21T09:58:49;100545.47;;;15.69;65.85
59971;BME280;45825;45.434;9.116;2023-03-21T10:01:23;100549.63;;;15.98;64.84
59971;BME280;45825;45.434;9.116;2023-03-21T10:04:07;100539.25;;;16.30;63.73
59971;BME280;45825;45.434;9.116;2023-03-21T10:06:37;100539.66;;;16.37;62.04
59971;BME280;45825;45.434;9.116;2023-03-21T10:09:13;100542.53;;;16.34;61.11
59971;BME280;45825;45.434;9.116;2023-03-21T10:11:46;100545.16;;;16.70;60.62
59971;BME280;45825;45.434;9.116;2023-03-21T10:14:29;100544.56;;;16.66;59.61
59971;BME280;45825;45.434;9.116;2023-03-21T10:17:26;100541.84;;;17.02;58.86
59971;BME280;45825;45.434;9.116;2023-03-21T10:22:35;100535.53;;;18.25;55.16
59971;BME280;45825;45.434;9.116;2023-03-21T10:25:00;100535.66;;;18.88;54.24
59971;BME280;45825;45.434;9.116;2023-03-21T10:27:26;100526.13;;;19.16;52.46
59971;BME280;45825;45.434;9.116;2023-03-21T10:29:51;100524.97;;;19.60;51.18
59971;BME280;45825;45.434;9.116;2023-03-21T10:32:17;100516.59;;;20.14;49.40
59971;BME280;45825;45.434;9.116;2023-03-21T10:34:54;100519.78;;;20.47;48.59
59971;BME280;45825;45.434;9.116;2023-03-21T10:37:21;100515.44;;;20.46;47.43
59971;BME280;45825;45.434;9.116;2023-03-21T10:39:51;100511.56;;;21.16;46.29
59971;BME280;45825;45.434;9.116;2023-03-21T10:42:25;100510.47;;;21.37;45.16
59971;BME280;45825;45.434;9.116;2023-03-21T10:44:53;100510.75;;;21.33;45.18
59971;BME280;45825;45.434;9.116;2023-03-21T10:47:32;100503.66;;;21.42;45.26
59971;BME280;45825;45.434;9.116;2023-03-21T10:50:07;100501.88;;;21.97;43.61
59971;BME280;45825;45.434;9.116;2023-03-21T10:52:34;100501.03;;;22.41;41.85
59971;BME280;45825;45.434;9.116;2023-03-21T10:55:15;100493.06;;;22.05;41.17
59971;BME280;45825;45.434;9.116;2023-03-21T10:57:44;100494.78;;;22.32;41.22
59971;BME280;45825;45.434;9.116;2023-03-21T11:00:18;100487.84;;;23.09;40.06
59971;BME280;45825;45.434;9.116;2023-03-21T11:02:50;100485.69;;;23.72;39.24
59971;BME280;45825;45.434;9.116;2023-03-21T11:05:24;100482.84;;;24.16;38.02
59971;BME280;45825;45.434;9.116;2023-03-21T11:08:02;100483.00;;;23.81;37.30
59971;BME280;45825;45.434;9.116;2023-03-21T11:10:34;100482.03;;;24.23;36.41
59971;BME280;45825;45.434;9.116;2023-03-21T11:13:05;100481.25;;;24.63;35.04
59971;BME280;45825;45.434;9.116;2023-03-21T11:15:39;100478.59;;;25.11;34.33
59971;BME280;45825;45.434;9.116;2023-03-21T11:18:26;100475.41;;;25.39;34.33
59971;BME280;45825;45.434;9.116;2023-03-21T11:21:03;100470.75;;;25.24;34.71
59971;BME280;45825;45.434;9.116;2023-03-21T11:23:31;100475.09;;;25.34;33.51
59971;BME280;45825;45.434;9.116;2023-03-21T11:25:59;100466.03;;;24.95;34.48
59971;BME280;45825;45.434;9.116;2023-03-21T11:28:32;100464.94;;;25.76;33.13
59971;BME280;45825;45.434;9.116;2023-03-21T11:31:00;100459.75;;;25.66;32.65
59971;BME280;45825;45.434;9.116;2023-03-21T11:33:41;100460.66;;;25.58;33.90
59971;BME280;45825;45.434;9.116;2023-03-21T11:38:59;100459.66;;;27.48;34.01
59971;BME280;45825;45.434;9.116;2023-03-21T11:41:31;100449.78;;;25.75;31.76
59971;BME280;45825;45.434;9.116;2023-03-21T11:43:58;100445.03;;;26.15;31.64
59971;BME280;45825;45.434;9.116;2023-03-21T11:46:29;100446.75;;;26.61;31.30
59971;BME280;45825;45.434;9.116;2023-03-21T11:48:55;100439.19;;;27.02;30.45
59971;BME280;45825;45.434;9.116;2023-03-21T11:56:33;100418.06;;;28.56;28.71
59971;BME280;45825;45.434;9.116;2023-03-21T12:05:03;100405.63;;;29.11;27.74
59971;BME280;45825;45.434;9.116;2023-03-21T12:10:26;100406.94;;;27.15;29.07
59971;BME280;45825;45.434;9.116;2023-03-21T12:15:30;100391.13;;;28.06;28.22
59971;BME280;45825;45.434;9.116;2023-03-21T12:20:48;100386.69;;;30.12;25.69
59971;BME280;45825;45.434;9.116;2023-03-21T12:29:14;100373.78;;;29.80;25.54
59971;BME280;45825;45.434;9.116;2023-03-21T12:37:52;100349.97;;;31.40;23.23
59971;BME280;45825;45.434;9.116;2023-03-21T12:40:28;100350.19;;;29.94;25.06
59971;BME280;45825;45.434;9.116;2023-03-21T12:43:16;100349.72;;;28.83;25.49
59971;BME280;45825;45.434;9.116;2023-03-21T12:45:50;100335.22;;;29.51;25.32
59971;BME280;45825;45.434;9.116;2023-03-21T12:48:29;100335.22;;;29.58;24.87
59971;BME280;45825;45.434;9.116;2023-03-21T12:50:58;100333.75;;;28.53;26.10
59971;BME280;45825;45.434;9.116;2023-03-21T12:56:01;100320.25;;;29.49;25.17
59971;BME280;45825;45.434;9.116;2023-03-21T12:58:30;100317.22;;;30.63;23.78
59971;BME280;45825;45.434;9.116;2023-03-21T13:01:01;100307.72;;;31.88;23.06
59971;BME280;45825;45.434;9.116;2023-03-21T13:03:32;100310.69;;;31.86;23.07
59971;BME280;45825;45.434;9.116;2023-03-21T13:06:03;100316.47;;;30.88;23.00
59971;BME280;45825;45.434;9.116;2023-03-21T13:08:48;100309.31;;;30.03;23.91
59971;BME280;45825;45.434;9.116;2023-03-21T13:11:21;100304.94;;;30.08;24.79
59971;BME280;45825;45.434;9.116;2023-03-21T13:14:14;100296.16;;;30.59;25.38
59971;BME280;45825;45.434;9.116;2023-03-21T13:16:55;100299.59;;;27.96;26.58
59971;BME280;45825;45.434;9.116;2023-03-21T13:22:28;100286.75;;;30.55;25.33
59971;BME280;45825;45.434;9.116;2023-03-21T13:25:02;100291.75;;;30.19;24.04
59971;BME280;45825;45.434;9.116;2023-03-21T13:30:02;100284.28;;;30.53;23.69
59971;BME280;45825;45.434;9.116;2023-03-21T13:32:41;100283.00;;;30.56;23.66
59971;BME280;45825;45.434;9.116;2023-03-21T13:37:38;100262.41;;;31.38;23.21
59971;BME280;45825;45.434;9.116;2023-03-21T13:40:07;100265.66;;;31.28;23.82
59971;BME280;45825;45.434;9.116;2023-03-21T13:42:50;100278.16;;;30.25;24.38
59971;BME280;45825;45.434;9.116;2023-03-21T13:47:53;100273.66;;;28.71;25.61
59971;BME280;45825;45.434;9.116;2023-03-21T13:50:22;100270.56;;;28.81;25.75
59971;BME280;45825;45.434;9.116;2023-03-21T13:55:42;100258.72;;;27.49;28.23
59971;BME280;45825;45.434;9.116;2023-03-21T13:58:33;100243.78;;;27.25;27.99
59971;BME280;45825;45.434;9.116;2023-03-21T14:01:25;100244.03;;;27.30;27.76
59971;BME280;45825;45.434;9.116;2023-03-21T14:04:05;100231.66;;;26.33;28.80
59971;BME280;45825;45.434;9.116;2023-03-21T14:06:44;100230.78;;;26.11;28.56
59971;BME280;45825;45.434;9.116;2023-03-21T14:09:21;100243.88;;;25.16;29.80
59971;BME280;45825;45.434;9.116;2023-03-21T14:11:50;100231.41;;;25.38;29.62
59971;BME280;45825;45.434;9.116;2023-03-21T14:14:16;100231.69;;;25.43;30.55
59971;BME280;45825;45.434;9.116;2023-03-21T14:16:43;100229.16;;;24.88;30.29
59971;BME280;45825;45.434;9.116;2023-03-21T14:19:10;100229.38;;;25.40;30.54
59971;BME280;45825;45.434;9.116;2023-03-21T14:21:36;100220.31;;;25.56;30.18
59971;BME280;45825;45.434;9.116;2023-03-21T14:24:12;100222.75;;;25.28;30.88
59971;BME280;45825;45.434;9.116;2023-03-21T14:26:44;100225.25;;;23.31;33.50